createdAt,value
2019-01-25T00:00:16.996Z,-2.13
2019-01-25T00:01:16.983Z,-2.19
2019-01-25T00:02:16.966Z,-2.25
2019-01-25T00:03:16.968Z,-2.13
2019-01-25T00:04:16.961Z,-2.25
2019-01-25T00:05:16.959Z,-2.14
2019-01-25T00:06:16.938Z,-2.10
2019-01-25T00:07:16.917Z,-2.11
2019-01-25T00:08:16.907Z,-2.18
2019-01-25T00:09:16.917Z,-2.13
2019-01-25T00:10:16.909Z,-2.11
2019-01-25T00:11:16.885Z,-2.08
2019-01-25T00:12:16.896Z,-2.11
2019-01-25T00:13:16.858Z,-2.10
2019-01-25T00:14:16.844Z,-2.18
2019-01-25T00:15:16.856Z,-2.07
2019-01-25T00:16:16.822Z,-2.11
2019-01-25T00:17:16.882Z,-2.10
2019-01-25T00:18:16.803Z,-2.07
2019-01-25T00:19:16.790Z,-2.11
2019-01-25T00:20:16.797Z,-2.13
2019-01-25T00:21:16.770Z,-2.25
2019-01-25T00:22:16.769Z,-2.16
2019-01-25T00:23:16.753Z,-2.16
2019-01-25T00:24:16.745Z,-2.11
2019-01-25T00:25:16.743Z,-2.14
2019-01-25T00:26:16.723Z,-2.19
2019-01-25T00:27:16.710Z,-2.16
2019-01-25T00:28:16.699Z,-2.18
2019-01-25T00:29:16.684Z,-2.19
2019-01-25T00:30:16.701Z,-2.18
2019-01-25T00:31:16.663Z,-2.11
2019-01-25T00:32:16.669Z,-2.13
2019-01-25T00:33:16.643Z,-2.16
2019-01-25T00:34:16.634Z,-2.08
2019-01-25T00:35:16.643Z,-2.13
2019-01-25T00:36:16.632Z,-2.11
2019-01-25T00:37:16.605Z,-2.10
2019-01-25T00:38:16.600Z,-2.04
2019-01-25T00:39:16.580Z,-2.06
2019-01-25T00:40:16.585Z,-2.11
2019-01-25T00:41:16.591Z,-2.04
2019-01-25T00:42:16.548Z,-2.06
2019-01-25T00:43:16.543Z,-2.03
2019-01-25T00:44:16.544Z,-2.13
2019-01-25T00:45:16.564Z,-2.08
2019-01-25T00:46:16.513Z,-2.13
2019-01-25T00:47:16.538Z,-1.98
2019-01-25T00:48:16.487Z,-2.06
2019-01-25T00:49:16.480Z,-2.07
2019-01-25T00:50:16.480Z,-2.06
2019-01-25T00:51:16.465Z,-2.08
2019-01-25T00:52:16.475Z,-1.98
2019-01-25T00:53:16.428Z,-1.96
2019-01-25T00:54:16.421Z,-2.10
2019-01-25T00:55:16.425Z,-1.95
2019-01-25T00:56:16.407Z,-2.04
2019-01-25T00:57:16.391Z,-2.06
2019-01-25T00:58:16.382Z,-2.06
2019-01-25T00:59:16.365Z,-2.04
2019-01-25T01:00:16.378Z,-1.92
2019-01-25T01:01:16.350Z,-1.98
2019-01-25T01:02:16.347Z,-1.95
2019-01-25T01:03:16.329Z,-2.06
2019-01-25T01:04:16.323Z,-2.04
2019-01-25T01:05:16.343Z,-1.98
2019-01-25T01:06:16.295Z,-1.92
2019-01-25T01:07:16.292Z,-2.03
2019-01-25T01:08:16.287Z,-2.03
2019-01-25T01:09:16.299Z,-2.07
2019-01-25T01:10:16.270Z,-1.95
2019-01-25T01:11:16.242Z,-1.98
2019-01-25T01:12:16.232Z,-2.06
2019-01-25T01:13:16.279Z,-2.10
2019-01-25T01:14:16.292Z,-2.04
2019-01-25T01:15:16.221Z,-2.10
2019-01-25T01:16:16.192Z,-2.11
2019-01-25T01:17:16.176Z,-2.22
2019-01-25T01:18:16.171Z,-2.11
2019-01-25T01:19:16.209Z,-2.16
2019-01-25T01:20:16.167Z,-2.18
2019-01-25T01:21:16.206Z,-2.14
2019-01-25T01:22:16.129Z,-2.19
2019-01-25T01:23:16.120Z,-2.26
2019-01-25T01:24:16.131Z,-2.22
2019-01-25T01:25:16.120Z,-2.25
2019-01-25T01:26:16.088Z,-2.22
2019-01-25T01:27:16.072Z,-2.19
2019-01-25T01:28:16.058Z,-2.21
2019-01-25T01:29:16.050Z,-2.11
2019-01-25T01:30:16.077Z,-2.22
2019-01-25T01:31:16.038Z,-2.21
2019-01-25T01:32:16.029Z,-2.11
2019-01-25T01:33:16.013Z,-2.18
2019-01-25T01:34:15.993Z,-2.16
2019-01-25T01:35:16.000Z,-2.11
2019-01-25T01:36:15.976Z,-2.13
2019-01-25T01:37:15.967Z,-2.07
2019-01-25T01:38:15.962Z,-2.16
2019-01-25T01:39:15.962Z,-2.13
2019-01-25T01:40:21.817Z,-2.10
2019-01-25T01:41:16.924Z,-2.11
2019-01-25T01:42:15.917Z,-2.06
2019-01-25T01:43:15.904Z,-2.13
2019-01-25T01:44:15.901Z,-2.08
2019-01-25T01:45:15.929Z,-2.21
2019-01-25T01:46:15.902Z,-2.10
2019-01-25T01:47:17.383Z,-2.04
2019-01-25T01:48:15.849Z,-2.11
2019-01-25T01:49:15.842Z,-2.10
2019-01-25T01:50:15.858Z,-2.13
2019-01-25T01:51:15.832Z,-2.16
2019-01-25T01:52:15.814Z,-2.06
2019-01-25T01:53:15.793Z,-2.18
2019-01-25T01:54:15.789Z,-2.22
2019-01-25T01:55:15.850Z,-2.21
2019-01-25T01:56:15.773Z,-2.24
2019-01-25T01:57:15.779Z,-2.19
2019-01-25T01:58:15.744Z,-2.18
2019-01-25T01:59:15.732Z,-2.19
2019-01-25T02:00:15.729Z,-2.22
2019-01-25T02:01:15.728Z,-2.08
2019-01-25T02:02:15.702Z,-2.10
2019-01-25T02:03:15.696Z,-2.22
2019-01-25T02:04:15.682Z,-2.11
2019-01-25T02:05:15.670Z,-2.11
2019-01-25T02:06:15.674Z,-2.08
2019-01-25T02:07:15.649Z,-2.14
2019-01-25T02:08:15.641Z,-2.11
2019-01-25T02:09:15.644Z,-2.11
2019-01-25T02:10:15.614Z,-2.06
2019-01-25T02:11:15.613Z,-2.10
2019-01-25T02:12:15.597Z,-2.07
2019-01-25T02:13:15.604Z,-2.04
2019-01-25T02:14:15.576Z,-2.04
2019-01-25T02:15:15.572Z,-2.04
2019-01-25T02:16:15.585Z,-2.10
2019-01-25T02:17:15.552Z,-2.11
2019-01-25T02:18:15.557Z,-2.08
2019-01-25T02:19:15.526Z,-2.06
2019-01-25T02:20:15.516Z,-2.07
2019-01-25T02:21:15.549Z,-2.10
2019-01-25T02:22:15.568Z,-2.04
2019-01-25T02:23:15.486Z,-2.04
2019-01-25T02:24:15.474Z,-2.04
2019-01-25T02:25:15.454Z,-2.11
2019-01-25T02:26:15.458Z,-2.07
2019-01-25T02:27:15.445Z,-2.11
2019-01-25T02:28:15.421Z,-2.11
2019-01-25T02:29:15.422Z,-2.13
2019-01-25T02:30:15.421Z,-2.14
2019-01-25T02:31:15.418Z,-2.11
2019-01-25T02:32:15.393Z,-2.04
2019-01-25T02:33:15.387Z,-2.11
2019-01-25T02:34:15.369Z,-2.03
2019-01-25T02:35:24.786Z,-2.13
2019-01-25T02:36:15.368Z,-2.10
2019-01-25T02:37:24.834Z,-2.13
2019-01-25T02:38:15.317Z,-2.11
2019-01-25T02:39:15.301Z,-2.16
2019-01-25T02:40:15.294Z,-2.19
2019-01-25T02:41:15.315Z,-2.32
2019-01-25T02:42:15.276Z,-2.28
2019-01-25T02:43:15.285Z,-2.24
2019-01-25T02:44:15.298Z,-2.26
2019-01-25T02:45:15.288Z,-2.22
2019-01-25T02:46:15.323Z,-2.21
2019-01-25T02:47:24.299Z,-2.18
2019-01-25T02:48:15.205Z,-2.16
2019-01-25T02:49:15.193Z,-2.14
2019-01-25T02:50:15.184Z,-2.19
2019-01-25T02:51:15.182Z,-2.18
2019-01-25T02:52:15.163Z,-2.21
2019-01-25T02:53:15.150Z,-2.16
2019-01-25T02:54:15.143Z,-2.16
2019-01-25T02:55:15.129Z,-2.08
2019-01-25T02:56:15.132Z,-2.14
2019-01-25T02:57:15.112Z,-2.11
2019-01-25T02:58:15.099Z,-2.13
2019-01-25T02:59:15.087Z,-2.06
2019-01-25T03:00:15.078Z,-2.03
2019-01-25T03:01:15.080Z,-2.04
2019-01-25T03:02:15.059Z,-2.08
2019-01-25T03:03:15.053Z,-2.03
2019-01-25T03:04:15.041Z,-2.01
2019-01-25T03:05:15.035Z,-1.98
2019-01-25T03:06:15.024Z,-1.96
2019-01-25T03:07:15.004Z,-2.03
2019-01-25T03:08:14.995Z,-2.08
2019-01-25T03:09:14.984Z,-2.10
2019-01-25T03:10:14.971Z,-2.01
2019-01-25T03:11:14.975Z,-2.10
2019-01-25T03:12:14.950Z,-1.92
2019-01-25T03:13:14.942Z,-2.03
2019-01-25T03:14:14.932Z,-2.03
2019-01-25T03:15:14.918Z,-2.00
2019-01-25T03:16:14.920Z,-2.03
2019-01-25T03:17:14.897Z,-1.96
2019-01-25T03:18:14.891Z,-2.07
2019-01-25T03:19:14.877Z,-2.07
2019-01-25T03:20:14.875Z,-2.07
2019-01-25T03:21:14.874Z,-2.14
2019-01-25T03:22:14.846Z,-2.18
2019-01-25T03:23:14.833Z,-2.18
2019-01-25T03:24:14.823Z,-2.18
2019-01-25T03:25:14.814Z,-2.22
2019-01-25T03:26:14.814Z,-2.19
2019-01-25T03:27:14.792Z,-2.22
2019-01-25T03:28:14.782Z,-2.21
2019-01-25T03:29:14.780Z,-2.19
2019-01-25T03:30:14.760Z,-2.24
2019-01-25T03:31:14.765Z,-2.22
2019-01-25T03:32:14.750Z,-2.19
2019-01-25T03:33:14.731Z,-2.19
2019-01-25T03:34:14.717Z,-2.26
2019-01-25T03:35:14.706Z,-2.33
2019-01-25T03:36:14.709Z,-2.24
2019-01-25T03:37:14.685Z,-2.22
2019-01-25T03:38:14.674Z,-2.28
2019-01-25T03:39:14.664Z,-2.26
2019-01-25T03:40:14.660Z,-2.24
2019-01-25T03:41:14.675Z,-2.18
2019-01-25T03:42:14.633Z,-2.21
2019-01-25T03:43:14.625Z,-2.19
2019-01-25T03:44:14.612Z,-2.19
2019-01-25T03:45:14.601Z,-2.11
2019-01-25T03:46:14.601Z,-2.07
2019-01-25T03:47:14.579Z,-2.06
2019-01-25T03:48:14.570Z,-2.14
2019-01-25T03:49:14.563Z,-2.08
2019-01-25T03:50:14.567Z,-2.11
2019-01-25T03:51:14.550Z,-2.10
2019-01-25T03:52:14.527Z,-2.18
2019-01-25T03:53:14.517Z,-2.07
2019-01-25T03:54:14.505Z,-2.19
2019-01-25T03:55:14.495Z,-2.26
2019-01-25T03:56:14.499Z,-2.21
2019-01-25T03:57:14.474Z,-2.16
2019-01-25T03:58:14.464Z,-2.14
2019-01-25T03:59:14.454Z,-2.22
2019-01-25T04:00:14.441Z,-2.16
2019-01-25T04:01:14.449Z,-2.16
2019-01-25T04:02:14.420Z,-2.19
2019-01-25T04:03:14.409Z,-2.19
2019-01-25T04:04:14.399Z,-2.16
2019-01-25T04:05:14.389Z,-2.25
2019-01-25T04:06:14.438Z,-2.16
2019-01-25T04:07:23.859Z,-2.19
2019-01-25T04:08:14.360Z,-2.22
2019-01-25T04:09:14.385Z,-2.19
2019-01-25T04:10:14.335Z,-2.10
2019-01-25T04:11:14.340Z,-2.16
2019-01-25T04:12:14.316Z,-2.18
2019-01-25T04:13:14.304Z,-2.22
2019-01-25T04:14:14.292Z,-2.28
2019-01-25T04:15:23.384Z,-2.24
2019-01-25T04:16:14.305Z,-2.33
2019-01-25T04:17:14.266Z,-2.33
2019-01-25T04:18:14.300Z,-2.38
2019-01-25T04:19:14.252Z,-2.29
2019-01-25T04:20:14.230Z,-2.26
2019-01-25T04:21:14.222Z,-2.26
2019-01-25T04:22:14.221Z,-2.18
2019-01-25T04:23:14.198Z,-2.18
2019-01-25T04:24:14.201Z,-2.21
2019-01-25T04:25:14.199Z,-2.25
2019-01-25T04:26:14.171Z,-2.28
2019-01-25T04:27:14.174Z,-2.14
2019-01-25T04:28:14.169Z,-2.19
2019-01-25T04:29:14.138Z,-2.13
2019-01-25T04:30:14.137Z,-2.19
2019-01-25T04:31:14.115Z,-2.19
2019-01-25T04:32:14.113Z,-2.24
2019-01-25T04:33:14.095Z,-2.25
2019-01-25T04:34:14.090Z,-2.29
2019-01-25T04:35:14.073Z,-2.28
2019-01-25T04:36:14.075Z,-2.28
2019-01-25T04:37:14.075Z,-2.35
2019-01-25T04:38:14.042Z,-2.22
2019-01-25T04:39:14.030Z,-2.25
2019-01-25T04:40:14.019Z,-2.22
2019-01-25T04:41:14.013Z,-2.22
2019-01-25T04:42:14.015Z,-2.26
2019-01-25T04:43:13.991Z,-2.21
2019-01-25T04:44:13.976Z,-2.22
2019-01-25T04:45:13.971Z,-2.22
2019-01-25T04:46:13.953Z,-2.26
2019-01-25T04:47:13.957Z,-2.25
2019-01-25T04:48:13.934Z,-2.29
2019-01-25T04:49:13.924Z,-2.14
2019-01-25T04:50:13.918Z,-2.19
2019-01-25T04:51:13.902Z,-2.14
2019-01-25T04:52:13.909Z,-2.16
2019-01-25T04:53:13.886Z,-2.21
2019-01-25T04:54:13.874Z,-2.18
2019-01-25T04:55:13.867Z,-2.19
2019-01-25T04:56:13.851Z,-2.18
2019-01-25T04:57:13.856Z,-2.21
2019-01-25T04:58:13.831Z,-2.11
2019-01-25T04:59:13.824Z,-2.19
2019-01-25T05:00:13.812Z,-2.22
2019-01-25T05:01:13.806Z,-2.18
2019-01-25T05:02:13.802Z,-2.16
2019-01-25T05:03:13.777Z,-2.14
2019-01-25T05:04:13.769Z,-2.14
2019-01-25T05:05:13.758Z,-2.16
2019-01-25T05:06:13.747Z,-2.18
2019-01-25T05:07:13.746Z,-2.22
2019-01-25T05:08:13.729Z,-2.11
2019-01-25T05:09:13.711Z,-2.13
2019-01-25T05:10:13.706Z,-2.11
2019-01-25T05:11:19.744Z,-2.13
2019-01-25T05:12:14.691Z,-2.19
2019-01-25T05:13:13.677Z,-2.11
2019-01-25T05:14:13.659Z,-2.07
2019-01-25T05:15:13.653Z,-2.19
2019-01-25T05:16:13.640Z,-2.11
2019-01-25T05:17:13.640Z,-2.08
2019-01-25T05:18:13.622Z,-2.18
2019-01-25T05:19:13.615Z,-2.16
2019-01-25T05:20:13.596Z,-2.19
2019-01-25T05:21:13.586Z,-2.19
2019-01-25T05:22:13.588Z,-2.16
2019-01-25T05:23:13.574Z,-2.14
2019-01-25T05:24:13.557Z,-2.22
2019-01-25T05:25:13.546Z,-2.19
2019-01-25T05:26:13.534Z,-2.22
2019-01-25T05:27:13.532Z,-2.28
2019-01-25T05:28:13.513Z,-2.21
2019-01-25T05:29:13.509Z,-2.26
2019-01-25T05:30:13.540Z,-2.26
2019-01-25T05:31:13.480Z,-2.24
2019-01-25T05:32:13.480Z,-2.25
2019-01-25T05:33:13.457Z,-2.22
2019-01-25T05:34:13.447Z,-2.26
2019-01-25T05:35:13.444Z,-2.21
2019-01-25T05:36:13.431Z,-2.19
2019-01-25T05:37:13.427Z,-2.19
2019-01-25T05:38:13.404Z,-2.19
2019-01-25T05:39:13.398Z,-2.22
2019-01-25T05:40:13.386Z,-2.11
2019-01-25T05:41:13.377Z,-2.13
2019-01-25T05:42:13.384Z,-2.18
2019-01-25T05:43:13.353Z,-2.13
2019-01-25T05:44:13.344Z,-2.14
2019-01-25T05:45:13.334Z,-2.14
2019-01-25T05:46:13.319Z,-2.14
2019-01-25T05:47:13.371Z,-2.19
2019-01-25T05:48:13.301Z,-2.18
2019-01-25T05:49:13.367Z,-2.19
2019-01-25T05:50:13.283Z,-2.16
2019-01-25T05:51:13.269Z,-2.25
2019-01-25T05:52:13.283Z,-2.19
2019-01-25T05:53:13.261Z,-2.18
2019-01-25T05:54:13.240Z,-2.19
2019-01-25T05:55:13.230Z,-2.03
2019-01-25T05:56:13.224Z,-2.10
2019-01-25T05:57:13.227Z,-2.13
2019-01-25T05:58:13.201Z,-2.13
2019-01-25T05:59:13.195Z,-2.13
2019-01-25T06:00:13.175Z,-2.10
2019-01-25T06:01:13.162Z,-2.13
2019-01-25T06:02:13.166Z,-2.10
2019-01-25T06:03:13.143Z,-2.13
2019-01-25T06:04:13.134Z,-2.08
2019-01-25T06:05:13.125Z,-2.11
2019-01-25T06:06:13.110Z,-2.11
2019-01-25T06:07:13.113Z,-2.11
2019-01-25T06:08:13.092Z,-2.11
2019-01-25T06:09:13.080Z,-2.13
2019-01-25T06:10:13.069Z,-2.10
2019-01-25T06:11:13.065Z,-2.11
2019-01-25T06:12:13.057Z,-2.16
2019-01-25T06:13:13.035Z,-2.18
2019-01-25T06:14:13.050Z,-2.22
2019-01-25T06:15:13.023Z,-2.08
2019-01-25T06:16:13.043Z,-2.18
2019-01-25T06:17:13.016Z,-2.16
2019-01-25T06:18:12.986Z,-2.11
2019-01-25T06:19:12.984Z,-2.11
2019-01-25T06:20:12.975Z,-2.10
2019-01-25T06:21:12.958Z,-2.13
2019-01-25T06:22:12.958Z,-2.04
2019-01-25T06:23:12.945Z,-2.13
2019-01-25T06:24:12.923Z,-2.10
2019-01-25T06:25:12.930Z,-2.06
2019-01-25T06:26:12.916Z,-2.11
2019-01-25T06:27:12.913Z,-2.04
2019-01-25T06:28:12.882Z,-2.07
2019-01-25T06:29:12.873Z,-2.06
2019-01-25T06:30:12.865Z,-1.98
2019-01-25T06:31:12.852Z,-2.01
2019-01-25T06:32:12.841Z,-2.00
2019-01-25T06:33:12.849Z,-2.00
2019-01-25T06:34:12.822Z,-2.01
2019-01-25T06:35:12.807Z,-2.01
2019-01-25T06:36:12.799Z,-1.90
2019-01-25T06:37:12.786Z,-1.93
2019-01-25T06:38:12.798Z,-1.95
2019-01-25T06:39:12.769Z,-1.90
2019-01-25T06:40:12.758Z,-1.92
2019-01-25T06:41:12.756Z,-1.95
2019-01-25T06:42:12.735Z,-1.90
2019-01-25T06:43:12.788Z,-1.92
2019-01-25T06:44:12.712Z,-1.85
2019-01-25T06:45:12.711Z,-1.93
2019-01-25T06:46:12.705Z,-1.90
2019-01-25T06:47:12.681Z,-1.95
2019-01-25T06:48:12.688Z,-1.90
2019-01-25T06:49:12.662Z,-1.95
2019-01-25T06:50:12.652Z,-1.98
2019-01-25T06:51:12.647Z,-1.95
2019-01-25T06:52:12.636Z,-1.96
2019-01-25T06:53:12.637Z,-1.90
2019-01-25T06:54:12.616Z,-1.90
2019-01-25T06:55:12.597Z,-1.90
2019-01-25T06:56:12.586Z,-1.89
2019-01-25T06:57:12.579Z,-1.90
2019-01-25T06:58:12.582Z,-1.89
2019-01-25T06:59:12.558Z,-1.93
2019-01-25T07:00:12.541Z,-1.93
2019-01-25T07:01:12.533Z,-1.85
2019-01-25T07:02:12.522Z,-1.83
2019-01-25T07:03:12.533Z,-1.89
2019-01-25T07:04:12.532Z,-1.86
2019-01-25T07:05:12.511Z,-1.88
2019-01-25T07:06:12.479Z,-1.86
2019-01-25T07:07:12.471Z,-1.88
2019-01-25T07:08:12.478Z,-1.88
2019-01-25T07:09:12.451Z,-1.82
2019-01-25T07:10:12.441Z,-1.90
2019-01-25T07:11:12.425Z,-1.90
2019-01-25T07:12:12.418Z,-1.86
2019-01-25T07:13:12.426Z,-1.90
2019-01-25T07:14:12.403Z,-1.86
2019-01-25T07:15:12.391Z,-1.85
2019-01-25T07:16:12.382Z,-1.88
2019-01-25T07:17:12.370Z,-1.86
2019-01-25T07:18:12.411Z,-1.88
2019-01-25T07:19:12.340Z,-1.78
2019-01-25T07:20:12.339Z,-1.85
2019-01-25T07:21:12.327Z,-1.86
2019-01-25T07:22:12.313Z,-1.86
2019-01-25T07:23:12.310Z,-1.90
2019-01-25T07:24:12.281Z,-1.96
2019-01-25T07:25:12.278Z,-1.86
2019-01-25T07:26:12.261Z,-1.88
2019-01-25T07:27:12.274Z,-1.92
2019-01-25T07:28:12.257Z,-1.93
2019-01-25T07:29:12.247Z,-1.86
2019-01-25T07:30:12.230Z,-1.96
2019-01-25T07:31:12.420Z,-1.95
2019-01-25T07:32:12.205Z,-2.03
2019-01-25T07:33:12.206Z,-2.11
2019-01-25T07:34:12.203Z,-2.11
2019-01-25T07:35:12.169Z,-1.98
2019-01-25T07:36:12.174Z,-2.01
2019-01-25T07:37:12.159Z,-2.06
2019-01-25T07:38:12.165Z,-2.01
2019-01-25T07:39:12.126Z,-2.01
2019-01-25T07:40:12.115Z,-1.93
2019-01-25T07:41:12.293Z,-2.03
2019-01-25T07:42:12.094Z,-2.03
2019-01-25T07:43:12.097Z,-1.96
2019-01-25T07:44:12.072Z,-1.89
2019-01-25T07:45:12.062Z,-1.92
2019-01-25T07:46:12.058Z,-1.93
2019-01-25T07:47:12.052Z,-1.95
2019-01-25T07:48:12.051Z,-1.92
2019-01-25T07:49:12.029Z,-1.90
2019-01-25T07:50:12.141Z,-1.93
2019-01-25T07:51:12.011Z,-1.90
2019-01-25T07:52:11.992Z,-1.86
2019-01-25T07:53:11.998Z,-1.95
2019-01-25T07:54:11.976Z,-2.00
2019-01-25T07:55:12.022Z,-2.03
2019-01-25T07:56:11.948Z,-2.00
2019-01-25T07:57:11.948Z,-2.01
2019-01-25T07:58:11.964Z,-2.06
2019-01-25T07:59:11.919Z,-2.07
2019-01-25T08:00:11.953Z,-2.00
2019-01-25T08:01:11.903Z,-1.95
2019-01-25T08:02:11.888Z,-2.07
2019-01-25T08:03:11.884Z,-2.03
2019-01-25T08:04:11.893Z,-2.03
2019-01-25T08:05:11.850Z,-1.96
2019-01-25T08:06:11.868Z,-1.93
2019-01-25T08:07:11.829Z,-2.04
2019-01-25T08:08:11.842Z,-2.10
2019-01-25T08:09:11.825Z,-1.96
2019-01-25T08:10:11.806Z,-2.04
2019-01-25T08:11:11.793Z,-2.10
2019-01-25T08:12:11.784Z,-1.96
2019-01-25T08:13:11.784Z,-1.96
2019-01-25T08:14:12.880Z,-1.95
2019-01-25T08:15:11.843Z,-1.96
2019-01-25T08:16:11.787Z,-1.93
2019-01-25T08:17:11.780Z,-1.92
2019-01-25T08:18:11.780Z,-2.00
2019-01-25T08:19:11.704Z,-1.89
2019-01-25T08:20:11.695Z,-1.86
2019-01-25T08:21:11.686Z,-1.83
2019-01-25T08:22:11.679Z,-1.85
2019-01-25T08:23:11.690Z,-1.92
2019-01-25T08:24:11.682Z,-1.93
2019-01-25T08:25:11.661Z,-1.89
2019-01-25T08:26:11.677Z,-1.78
2019-01-25T08:27:11.645Z,-1.80
2019-01-25T08:28:11.631Z,-1.75
2019-01-25T08:29:11.793Z,-1.74
2019-01-25T08:30:11.645Z,-1.72
2019-01-25T08:31:11.598Z,-1.71
2019-01-25T08:32:11.573Z,-1.62
2019-01-25T08:33:11.563Z,-1.70
2019-01-25T08:34:11.590Z,-1.68
2019-01-25T08:35:11.564Z,-1.77
2019-01-25T08:36:11.534Z,-1.68
2019-01-25T08:37:11.586Z,-1.72
2019-01-25T08:38:11.540Z,-1.64
2019-01-25T08:39:11.553Z,-1.62
2019-01-25T08:40:11.493Z,-1.61
2019-01-25T08:41:11.479Z,-1.59
2019-01-25T08:42:15.716Z,-1.61
2019-01-25T08:43:11.623Z,-1.61
2019-01-25T08:44:11.466Z,-1.61
2019-01-25T08:45:11.430Z,-1.56
2019-01-25T08:46:11.423Z,-1.65
2019-01-25T08:47:11.427Z,-1.59
2019-01-25T08:48:11.417Z,-1.59
2019-01-25T08:49:11.401Z,-1.56
2019-01-25T08:50:11.390Z,-1.62
2019-01-25T08:51:11.679Z,-1.62
2019-01-25T08:52:11.360Z,-1.61
2019-01-25T08:53:11.399Z,-1.57
2019-01-25T08:54:11.358Z,-1.59
2019-01-25T08:55:11.333Z,-1.59
2019-01-25T08:56:11.316Z,-1.62
2019-01-25T08:57:11.307Z,-1.61
2019-01-25T08:58:11.301Z,-1.59
2019-01-25T08:59:11.415Z,-1.62
2019-01-25T09:00:11.277Z,-1.57
2019-01-25T09:01:11.266Z,-1.53
2019-01-25T09:02:11.255Z,-1.49
2019-01-25T09:03:11.246Z,-1.47
2019-01-25T09:04:11.242Z,-1.49
2019-01-25T09:05:11.525Z,-1.53
2019-01-25T09:06:11.216Z,-1.51
2019-01-25T09:07:11.198Z,-1.47
2019-01-25T09:08:11.192Z,-1.44
2019-01-25T09:09:11.189Z,-1.46
2019-01-25T09:10:11.167Z,-1.38
2019-01-25T09:11:11.154Z,-1.35
2019-01-25T09:12:11.144Z,-1.29
2019-01-25T09:13:11.133Z,-1.26
2019-01-25T09:14:11.132Z,-1.23
2019-01-25T09:15:11.112Z,-1.10
2019-01-25T09:16:11.103Z,-1.08
2019-01-25T09:17:11.089Z,-1.00
2019-01-25T09:18:11.076Z,-1.03
2019-01-25T09:19:11.088Z,-1.07
2019-01-25T09:20:14.581Z,-1.05
2019-01-25T09:21:11.043Z,-0.96
2019-01-25T09:22:11.033Z,-0.96
2019-01-25T09:23:11.024Z,-0.99
2019-01-25T09:24:11.027Z,-1.05
2019-01-25T09:25:11.005Z,-0.97
2019-01-25T09:26:10.991Z,-0.99
2019-01-25T09:27:10.982Z,-1.03
2019-01-25T09:28:10.975Z,-1.07
2019-01-25T09:29:10.987Z,-1.03
2019-01-25T09:30:10.947Z,-0.97
2019-01-25T09:31:10.937Z,-0.96
2019-01-25T09:32:10.926Z,-1.08
2019-01-25T09:33:10.915Z,-1.02
2019-01-25T09:34:10.917Z,-1.03
2019-01-25T09:35:10.895Z,-1.02
2019-01-25T09:36:10.944Z,-1.05
2019-01-25T09:37:10.878Z,-1.11
2019-01-25T09:38:10.865Z,-1.11
2019-01-25T09:39:10.866Z,-1.05
2019-01-25T09:40:10.901Z,-1.11
2019-01-25T09:41:10.840Z,-1.07
2019-01-25T09:42:10.828Z,-1.08
2019-01-25T09:43:10.828Z,-1.10
2019-01-25T09:44:10.818Z,-1.08
2019-01-25T09:45:10.787Z,-0.96
2019-01-25T09:46:10.787Z,-1.10
2019-01-25T09:47:10.770Z,-0.96
2019-01-25T09:48:10.763Z,-1.08
2019-01-25T09:49:10.773Z,-0.97
2019-01-25T09:50:10.746Z,-1.05
2019-01-25T09:51:10.733Z,-0.96
2019-01-25T09:52:10.723Z,-0.93
2019-01-25T09:53:10.714Z,-0.97
2019-01-25T09:54:10.713Z,-0.99
2019-01-25T09:55:10.690Z,-0.80
2019-01-25T09:56:10.678Z,-0.96
2019-01-25T09:57:10.673Z,-0.92
2019-01-25T09:58:10.659Z,-0.78
2019-01-25T09:59:10.668Z,-0.76
2019-01-25T10:00:10.633Z,-0.56
2019-01-25T10:01:10.622Z,-0.41
2019-01-25T10:02:10.616Z,-0.13
2019-01-25T10:03:10.602Z,0.02
2019-01-25T10:04:10.603Z,0.17
2019-01-25T10:05:10.581Z,0.26
2019-01-25T10:06:10.570Z,0.37
2019-01-25T10:07:10.560Z,0.45
2019-01-25T10:08:10.543Z,0.52
2019-01-25T10:09:10.546Z,0.57
2019-01-25T10:10:10.527Z,0.71
2019-01-25T10:11:10.516Z,0.70
2019-01-25T10:12:10.504Z,0.75
2019-01-25T10:13:10.489Z,0.64
2019-01-25T10:14:10.498Z,0.74
2019-01-25T10:15:10.469Z,0.49
2019-01-25T10:16:10.460Z,0.37
2019-01-25T10:17:10.448Z,0.48
2019-01-25T10:18:10.441Z,0.48
2019-01-25T10:19:10.439Z,0.40
2019-01-25T10:20:10.420Z,0.33
2019-01-25T10:21:10.404Z,0.34
2019-01-25T10:22:10.395Z,0.59
2019-01-25T10:23:10.382Z,0.86
2019-01-25T10:24:10.385Z,1.17
2019-01-25T10:25:10.360Z,0.95
2019-01-25T10:26:10.352Z,0.74
2019-01-25T10:27:10.337Z,0.63
2019-01-25T10:28:10.330Z,0.52
2019-01-25T10:29:10.327Z,0.90
2019-01-25T10:30:10.308Z,0.78
2019-01-25T10:31:10.294Z,0.57
2019-01-25T10:32:10.287Z,0.60
2019-01-25T10:33:10.273Z,0.72
2019-01-25T10:34:10.276Z,0.52
2019-01-25T10:35:10.252Z,0.37
2019-01-25T10:36:10.243Z,0.20
2019-01-25T10:37:10.233Z,0.37
2019-01-25T10:38:10.225Z,0.75
2019-01-25T10:39:10.222Z,1.04
2019-01-25T10:40:10.211Z,1.28
2019-01-25T10:41:10.196Z,1.25
2019-01-25T10:42:10.192Z,1.31
2019-01-25T10:43:10.174Z,1.18
2019-01-25T10:44:10.173Z,0.72
2019-01-25T10:45:10.150Z,0.64
2019-01-25T10:46:10.137Z,0.78
2019-01-25T10:47:10.120Z,0.93
2019-01-25T10:48:10.112Z,0.99
2019-01-25T10:49:10.118Z,0.92
2019-01-25T10:50:10.088Z,0.59
2019-01-25T10:51:10.078Z,0.57
2019-01-25T10:52:10.065Z,0.48
2019-01-25T10:53:10.056Z,0.43
2019-01-25T10:54:10.062Z,0.44
2019-01-25T10:55:10.033Z,0.49
2019-01-25T10:56:10.022Z,0.52
2019-01-25T10:57:10.018Z,0.67
2019-01-25T10:58:10.002Z,0.74
2019-01-25T10:59:10.002Z,0.82
2019-01-25T11:00:09.981Z,0.93
2019-01-25T11:01:10.019Z,1.02
2019-01-25T11:02:09.958Z,1.06
2019-01-25T11:03:09.950Z,1.20
2019-01-25T11:04:11.662Z,1.20
2019-01-25T11:05:09.934Z,1.20
2019-01-25T11:06:09.918Z,1.21
2019-01-25T11:07:09.906Z,1.35
2019-01-25T11:08:09.900Z,1.39
2019-01-25T11:09:09.886Z,1.49
2019-01-25T11:10:09.897Z,1.43
2019-01-25T11:11:09.861Z,1.43
2019-01-25T11:12:09.860Z,1.29
2019-01-25T11:13:09.840Z,1.20
2019-01-25T11:14:09.852Z,1.18
2019-01-25T11:15:09.833Z,1.20
2019-01-25T11:16:11.906Z,1.18
2019-01-25T11:17:09.803Z,1.17
2019-01-25T11:18:09.783Z,1.17
2019-01-25T11:19:09.777Z,1.07
2019-01-25T11:20:09.775Z,0.96
2019-01-25T11:21:11.296Z,0.93
2019-01-25T11:22:09.746Z,0.93
2019-01-25T11:23:09.732Z,0.86
2019-01-25T11:24:09.722Z,0.75
2019-01-25T11:25:09.726Z,0.74
2019-01-25T11:26:09.700Z,0.72
2019-01-25T11:27:09.694Z,0.78
2019-01-25T11:28:09.696Z,0.70
2019-01-25T11:29:09.676Z,0.72
2019-01-25T11:30:09.675Z,0.60
2019-01-25T11:31:09.650Z,0.59
2019-01-25T11:32:09.639Z,0.59
2019-01-25T11:33:09.630Z,0.52
2019-01-25T11:34:09.614Z,0.49
2019-01-25T11:35:09.631Z,0.52
2019-01-25T11:36:09.599Z,0.59
2019-01-25T11:37:09.588Z,0.45
2019-01-25T11:38:09.574Z,0.31
2019-01-25T11:39:09.564Z,0.33
2019-01-25T11:40:09.572Z,0.30
2019-01-25T11:41:09.542Z,0.31
2019-01-25T11:42:09.529Z,0.28
2019-01-25T11:43:09.524Z,0.30
2019-01-25T11:44:09.507Z,0.35
2019-01-25T11:45:09.506Z,0.25
2019-01-25T11:46:09.482Z,0.28
2019-01-25T11:47:09.472Z,0.30
2019-01-25T11:48:09.464Z,0.28
2019-01-25T11:49:09.450Z,0.33
2019-01-25T11:50:09.450Z,0.38
2019-01-25T11:51:09.429Z,0.38
2019-01-25T11:52:09.418Z,0.44
2019-01-25T11:53:09.406Z,0.45
2019-01-25T11:54:09.397Z,0.48
2019-01-25T11:55:09.402Z,0.49
2019-01-25T11:56:09.381Z,0.53
2019-01-25T11:57:09.363Z,0.49
2019-01-25T11:58:09.353Z,0.51
2019-01-25T11:59:09.343Z,0.52
2019-01-25T12:00:09.344Z,0.44
2019-01-25T12:01:09.320Z,0.37
2019-01-25T12:02:09.317Z,0.33
2019-01-25T12:03:09.299Z,0.31
2019-01-25T12:04:09.289Z,0.28
2019-01-25T12:05:09.290Z,0.35
2019-01-25T12:06:09.267Z,0.25
2019-01-25T12:07:09.255Z,0.26
2019-01-25T12:08:09.247Z,0.25
2019-01-25T12:09:09.235Z,0.30
2019-01-25T12:10:09.241Z,0.20
2019-01-25T12:11:09.213Z,0.22
2019-01-25T12:12:09.202Z,0.22
2019-01-25T12:13:15.847Z,0.19
2019-01-25T12:14:10.178Z,0.17
2019-01-25T12:15:09.183Z,0.07
2019-01-25T12:16:09.159Z,0.01
2019-01-25T12:17:09.149Z,-0.01
2019-01-25T12:18:09.138Z,-0.06
2019-01-25T12:19:09.143Z,-0.19
2019-01-25T12:20:09.126Z,-0.14
2019-01-25T12:21:09.111Z,-0.13
2019-01-25T12:22:09.097Z,-0.16
2019-01-25T12:23:09.086Z,-0.13
2019-01-25T12:24:09.077Z,-0.16
2019-01-25T12:25:09.073Z,-0.08
2019-01-25T12:26:09.050Z,-0.13
2019-01-25T12:27:09.041Z,-0.06
2019-01-25T12:28:09.032Z,-0.05
2019-01-25T12:29:09.018Z,-0.05
2019-01-25T12:30:09.034Z,-0.08
2019-01-25T12:31:09.000Z,-0.08
2019-01-25T12:32:08.987Z,-0.14
2019-01-25T12:33:08.977Z,-0.08
2019-01-25T12:34:08.966Z,-0.13
2019-01-25T12:35:08.974Z,-0.20
2019-01-25T12:36:08.953Z,-0.19
2019-01-25T12:37:08.934Z,-0.19
2019-01-25T12:38:08.922Z,-0.24
2019-01-25T12:39:08.990Z,-0.23
2019-01-25T12:40:08.917Z,-0.14
2019-01-25T12:41:08.895Z,-0.12
2019-01-25T12:42:08.883Z,-0.21
2019-01-25T12:43:08.871Z,-0.21
2019-01-25T12:44:08.857Z,-0.17
2019-01-25T12:45:08.865Z,-0.14
2019-01-25T12:46:08.839Z,-0.23
2019-01-25T12:47:08.830Z,-0.13
2019-01-25T12:48:08.814Z,-0.13
2019-01-25T12:49:08.803Z,-0.13
2019-01-25T12:50:08.813Z,-0.17
2019-01-25T12:51:08.784Z,-0.19
2019-01-25T12:52:08.772Z,-0.09
2019-01-25T12:53:08.766Z,-0.14
2019-01-25T12:54:08.752Z,-0.20
2019-01-25T12:55:08.750Z,-0.05
2019-01-25T12:56:08.736Z,-0.06
2019-01-25T12:57:08.739Z,-0.12